sensor_id;sensor_type;location;lat;lon;timestamp;pressure;altitude;pressure_sealevel;temperature;humidity
26865;BME280;40618;51.166;10.322;2022-11-15T00:00:54;97100.66;;;7.71;83.65
26865;BME280;40618;51.166;10.322;2022-11-15T00:03:22;97099.88;;;7.69;83.12
26865;BME280;40618;51.166;10.322;2022-11-15T00:05:49;97105.16;;;7.64;83.51
26865;BME280;40618;51.166;10.322;2022-11-15T00:08:15;97109.44;;;7.63;82.70
26865;BME280;40618;51.166;10.322;2022-11-15T00:10:41;97108.59;;;7.63;82.92
26865;BME280;40618;51.166;10.322;2022-11-15T00:13:09;97107.69;;;7.66;82.90
26865;BME280;40618;51.166;10.322;2022-11-15T00:15:37;97107.56;;;7.70;83.00
26865;BME280;40618;51.166;10.322;2022-11-15T00:18:04;97102.41;;;7.70;83.34
26865;BME280;40618;51.166;10.322;2022-11-15T00:20:33;97107.53;;;7.72;83.30
26865;BME280;40618;51.166;10.322;2022-11-15T00:22:59;97101.47;;;7.74;82.98
26865;BME280;40618;51.166;10.322;2022-11-15T00:25:24;97104.88;;;7.75;83.04
26865;BME280;40618;51.166;10.322;2022-11-15T00:27:51;97098.09;;;7.72;83.03
26865;BME280;40618;51.166;10.322;2022-11-15T00:30:20;97099.88;;;7.69;83.46
26865;BME280;40618;51.166;10.322;2022-11-15T00:32:45;97101.50;;;7.73;83.57
26865;BME280;40618;51.166;10.322;2022-11-15T00:35:11;97112.47;;;7.81;83.06
26865;BME280;40618;51.166;10.322;2022-11-15T00:37:37;97107.13;;;7.89;82.98
26865;BME280;40618;51.166;10.322;2022-11-15T00:40:02;97108.75;;;7.93;83.00
26865;BME280;40618;51.166;10.322;2022-11-15T00:42:28;97102.75;;;7.91;83.02
26865;BME280;40618;51.166;10.322;2022-11-15T00:44:54;97110.59;;;7.88;82.78
26865;BME280;40618;51.166;10.322;2022-11-15T00:47:19;97107.84;;;7.94;83.00
26865;BME280;40618;51.166;10.322;2022-11-15T00:49:45;97103.59;;;7.93;83.01
26865;BME280;40618;51.166;10.322;2022-11-15T00:52:10;97106.25;;;7.88;82.64
26865;BME280;40618;51.166;10.322;2022-11-15T00:54:36;97109.75;;;7.86;82.21
26865;BME280;40618;51.166;10.322;2022-11-15T00:57:01;97110.66;;;7.85;82.18
26865;BME280;40618;51.166;10.322;2022-11-15T00:59:27;97108.94;;;7.85;83.11
26865;BME280;40618;51.166;10.322;2022-11-15T01:01:52;97108.09;;;7.85;83.14
26865;BME280;40618;51.166;10.322;2022-11-15T01:04:18;97105.34;;;7.91;83.05
26865;BME280;40618;51.166;10.322;2022-11-15T01:06:44;97097.50;;;7.95;83.05
26865;BME280;40618;51.166;10.322;2022-11-15T01:09:09;97106.88;;;7.98;83.23
26865;BME280;40618;51.166;10.322;2022-11-15T01:11:35;97104.94;;;8.06;83.25
26865;BME280;40618;51.166;10.322;2022-11-15T01:14:00;97106.66;;;8.07;82.75
26865;BME280;40618;51.166;10.322;2022-11-15T01:16:26;97102.38;;;8.06;82.42
26865;BME280;40618;51.166;10.322;2022-11-15T01:18:51;97098.97;;;8.06;83.10
26865;BME280;40618;51.166;10.322;2022-11-15T01:21:18;97104.94;;;8.06;82.83
26865;BME280;40618;51.166;10.322;2022-11-15T01:23:44;97097.34;;;8.02;82.51
26865;BME280;40618;51.166;10.322;2022-11-15T01:26:13;97100.88;;;7.97;82.77
26865;BME280;40618;51.166;10.322;2022-11-15T01:28:40;97104.44;;;7.93;82.72
26865;BME280;40618;51.166;10.322;2022-11-15T01:31:11;97096.66;;;7.95;82.97
26865;BME280;40618;51.166;10.322;2022-11-15T01:33:39;97087.25;;;7.92;82.52
26865;BME280;40618;51.166;10.322;2022-11-15T01:36:06;97095.91;;;7.90;81.96
26865;BME280;40618;51.166;10.322;2022-11-15T01:38:34;97089.13;;;7.86;82.49
26865;BME280;40618;51.166;10.322;2022-11-15T01:40:59;97103.03;;;7.80;82.04
26865;BME280;40618;51.166;10.322;2022-11-15T01:43:29;97086.72;;;7.79;82.10
26865;BME280;40618;51.166;10.322;2022-11-15T01:46:04;97078.13;;;7.81;82.71
26865;BME280;40618;51.166;10.322;2022-11-15T01:48:38;97082.41;;;7.80;82.17
26865;BME280;40618;51.166;10.322;2022-11-15T01:51:08;97075.53;;;7.81;82.28
26865;BME280;40618;51.166;10.322;2022-11-15T01:53:38;97076.50;;;7.76;82.11
26865;BME280;40618;51.166;10.322;2022-11-15T01:56:10;97078.25;;;7.74;82.25
26865;BME280;40618;51.166;10.322;2022-11-15T01:58:39;97068.88;;;7.72;82.37
26865;BME280;40618;51.166;10.322;2022-11-15T02:01:07;97067.13;;;7.74;82.05
26865;BME280;40618;51.166;10.322;2022-11-15T02:03:39;97061.13;;;7.72;82.41
26865;BME280;40618;51.166;10.322;2022-11-15T02:06:13;97063.81;;;7.69;82.38
26865;BME280;40618;51.166;10.322;2022-11-15T02:08:39;97060.41;;;7.67;81.93
26865;BME280;40618;51.166;10.322;2022-11-15T02:11:08;97068.22;;;7.63;82.79
26865;BME280;40618;51.166;10.322;2022-11-15T02:13:34;97070.03;;;7.60;82.58
26865;BME280;40618;51.166;10.322;2022-11-15T02:18:41;97058.94;;;7.56;82.30
26865;BME280;40618;51.166;10.322;2022-11-15T02:24:33;97061.59;;;7.53;82.39
26865;BME280;40618;51.166;10.322;2022-11-15T02:27:15;97064.19;;;7.52;82.07
26865;BME280;40618;51.166;10.322;2022-11-15T02:30:30;97051.34;;;7.50;82.15
26865;BME280;40618;51.166;10.322;2022-11-15T02:35:47;97040.34;;;7.45;82.06
26865;BME280;40618;51.166;10.322;2022-11-15T02:41:29;97045.66;;;7.37;82.42
26865;BME280;40618;51.166;10.322;2022-11-15T02:44:06;97049.31;;;7.28;82.50
26865;BME280;40618;51.166;10.322;2022-11-15T02:46:41;97041.69;;;7.24;81.90
26865;BME280;40618;51.166;10.322;2022-11-15T02:49:31;97040.91;;;7.20;81.82
26865;BME280;40618;51.166;10.322;2022-11-15T02:51:59;97040.13;;;7.17;81.96
26865;BME280;40618;51.166;10.322;2022-11-15T02:54:30;97043.66;;;7.13;82.29
26865;BME280;40618;51.166;10.322;2022-11-15T02:57:16;97042.03;;;7.08;82.02
26865;BME280;40618;51.166;10.322;2022-11-15T03:00:11;97043.78;;;7.06;81.67
26865;BME280;40618;51.166;10.322;2022-11-15T03:06:26;97043.03;;;7.03;82.17
26865;BME280;40618;51.166;10.322;2022-11-15T03:15:34;97043.97;;;6.99;82.07
26865;BME280;40618;51.166;10.322;2022-11-15T03:18:23;97043.06;;;7.00;82.12
26865;BME280;40618;51.166;10.322;2022-11-15T03:21:05;97035.31;;;7.03;82.34
26865;BME280;40618;51.166;10.322;2022-11-15T03:23:34;97031.00;;;7.03;82.70
26865;BME280;40618;51.166;10.322;2022-11-15T03:26:05;97029.28;;;7.02;82.02
26865;BME280;40618;51.166;10.322;2022-11-15T03:28:50;97031.91;;;7.01;82.14
26865;BME280;40618;51.166;10.322;2022-11-15T03:31:21;97031.19;;;6.94;82.36
26865;BME280;40618;51.166;10.322;2022-11-15T03:34:19;97038.16;;;6.89;82.00
26865;BME280;40618;51.166;10.322;2022-11-15T03:36:47;97027.19;;;6.82;82.46
26865;BME280;40618;51.166;10.322;2022-11-15T03:39:15;97034.19;;;6.75;81.71
26865;BME280;40618;51.166;10.322;2022-11-15T03:41:48;97034.31;;;6.69;82.38
26865;BME280;40618;51.166;10.322;2022-11-15T03:47:29;97025.97;;;6.58;82.18
26865;BME280;40618;51.166;10.322;2022-11-15T03:50:10;97025.22;;;6.53;82.04
26865;BME280;40618;51.166;10.322;2022-11-15T03:52:40;97021.88;;;6.48;81.63
26865;BME280;40618;51.166;10.322;2022-11-15T03:55:10;97020.22;;;6.45;82.33
26865;BME280;40618;51.166;10.322;2022-11-15T03:57:38;97013.44;;;6.41;82.16
26865;BME280;40618;51.166;10.322;2022-11-15T04:00:04;97016.94;;;6.40;81.86
26865;BME280;40618;51.166;10.322;2022-11-15T04:02:30;97019.53;;;6.38;82.29
26865;BME280;40618;51.166;10.322;2022-11-15T04:04:56;97022.97;;;6.37;82.06
26865;BME280;40618;51.166;10.322;2022-11-15T04:07:22;97023.03;;;6.34;82.12
26865;BME280;40618;51.166;10.322;2022-11-15T04:09:47;97027.44;;;6.29;81.93
26865;BME280;40618;51.166;10.322;2022-11-15T04:12:37;97027.53;;;6.23;81.96
26865;BME280;40618;51.166;10.322;2022-11-15T04:17:46;97035.47;;;6.10;81.35
26865;BME280;40618;51.166;10.322;2022-11-15T04:23:01;97038.13;;;6.07;81.93
26865;BME280;40618;51.166;10.322;2022-11-15T04:25:49;97041.59;;;6.05;81.55
26865;BME280;40618;51.166;10.322;2022-11-15T04:28:18;97030.50;;;6.01;81.51
26865;BME280;40618;51.166;10.322;2022-11-15T04:30:43;97031.44;;;5.99;81.44
26865;BME280;40618;51.166;10.322;2022-11-15T04:33:09;97023.72;;;5.96;81.84
26865;BME280;40618;51.166;10.322;2022-11-15T04:35:35;97026.38;;;5.92;81.81
26865;BME280;40618;51.166;10.322;2022-11-15T04:38:02;97013.59;;;5.89;81.78
26865;BME280;40618;51.166;10.322;2022-11-15T04:40:29;97015.34;;;5.86;82.04
26865;BME280;40618;51.166;10.322;2022-11-15T04:42:54;97015.34;;;5.86;82.13
26865;BME280;40618;51.166;10.322;2022-11-15T04:45:20;97013.75;;;5.80;81.79
26865;BME280;40618;51.166;10.322;2022-11-15T04:47:46;97009.53;;;5.76;81.90
26865;BME280;40618;51.166;10.322;2022-11-15T04:50:13;97006.13;;;5.75;82.03
26865;BME280;40618;51.166;10.322;2022-11-15T04:52:43;97005.22;;;5.76;81.86
26865;BME280;40618;51.166;10.322;2022-11-15T04:55:16;97002.66;;;5.76;81.78
26865;BME280;40618;51.166;10.322;2022-11-15T04:57:42;97003.56;;;5.74;82.10
26865;BME280;40618;51.166;10.322;2022-11-15T05:00:10;97004.41;;;5.76;82.33
26865;BME280;40618;51.166;10.322;2022-11-15T05:02:38;97001.00;;;5.75;82.19
26865;BME280;40618;51.166;10.322;2022-11-15T05:05:23;97010.38;;;5.76;81.79
26865;BME280;40618;51.166;10.322;2022-11-15T05:07:50;97003.56;;;5.75;81.69
26865;BME280;40618;51.166;10.322;2022-11-15T05:10:16;96997.63;;;5.72;81.27
26865;BME280;40618;51.166;10.322;2022-11-15T05:12:42;97002.81;;;5.69;82.06
26865;BME280;40618;51.166;10.322;2022-11-15T05:15:08;96996.88;;;5.65;81.92
26865;BME280;40618;51.166;10.322;2022-11-15T05:17:34;96997.72;;;5.66;81.70
26865;BME280;40618;51.166;10.322;2022-11-15T05:20:00;96989.19;;;5.65;81.93
26865;BME280;40618;51.166;10.322;2022-11-15T05:22:26;96985.81;;;5.63;81.67
26865;BME280;40618;51.166;10.322;2022-11-15T05:24:52;96991.84;;;5.59;81.69
26865;BME280;40618;51.166;10.322;2022-11-15T05:27:18;96993.66;;;5.54;81.66
26865;BME280;40618;51.166;10.322;2022-11-15T05:29:43;96981.75;;;5.50;81.79
26865;BME280;40618;51.166;10.322;2022-11-15T05:32:11;96981.75;;;5.50;81.72
26865;BME280;40618;51.166;10.322;2022-11-15T05:34:37;96986.09;;;5.46;81.56
26865;BME280;40618;51.166;10.322;2022-11-15T05:37:03;96983.53;;;5.45;81.41
26865;BME280;40618;51.166;10.322;2022-11-15T05:39:28;96987.06;;;5.39;81.63
26865;BME280;40618;51.166;10.322;2022-11-15T05:42:10;96982.81;;;5.38;82.07
26865;BME280;40618;51.166;10.322;2022-11-15T05:44:41;96991.34;;;5.38;82.42
26865;BME280;40618;51.166;10.322;2022-11-15T05:47:14;96998.22;;;5.36;81.65
26865;BME280;40618;51.166;10.322;2022-11-15T05:49:47;96995.66;;;5.36;81.91
26865;BME280;40618;51.166;10.322;2022-11-15T05:52:16;96998.19;;;5.39;81.95
26865;BME280;40618;51.166;10.322;2022-11-15T05:54:46;96992.19;;;5.40;81.97
26865;BME280;40618;51.166;10.322;2022-11-15T05:57:13;96991.31;;;5.41;81.90
26865;BME280;40618;51.166;10.322;2022-11-15T05:59:40;96994.72;;;5.42;81.95
26865;BME280;40618;51.166;10.322;2022-11-15T06:02:08;96989.56;;;5.42;81.60
26865;BME280;40618;51.166;10.322;2022-11-15T06:04:35;96993.81;;;5.45;81.96
26865;BME280;40618;51.166;10.322;2022-11-15T06:07:01;97001.53;;;5.45;81.82
26865;BME280;40618;51.166;10.322;2022-11-15T06:09:27;97002.28;;;5.50;81.86
26865;BME280;40618;51.166;10.322;2022-11-15T06:11:53;97005.69;;;5.50;81.89
26865;BME280;40618;51.166;10.322;2022-11-15T06:14:18;97006.56;;;5.49;82.08
26865;BME280;40618;51.166;10.322;2022-11-15T06:16:44;97002.28;;;5.50;82.12
26865;BME280;40618;51.166;10.322;2022-11-15T06:19:10;96998.78;;;5.55;82.13
26865;BME280;40618;51.166;10.322;2022-11-15T06:21:35;97008.16;;;5.58;82.27
26865;BME280;40618;51.166;10.322;2022-11-15T06:24:01;97011.59;;;5.57;82.38
26865;BME280;40618;51.166;10.322;2022-11-15T06:26:27;97017.59;;;5.56;81.99
26865;BME280;40618;51.166;10.322;2022-11-15T06:28:52;97015.88;;;5.55;82.15
26865;BME280;40618;51.166;10.322;2022-11-15T06:31:18;97014.25;;;5.52;82.09
26865;BME280;40618;51.166;10.322;2022-11-15T06:33:44;97016.81;;;5.52;82.12
26865;BME280;40618;51.166;10.322;2022-11-15T06:36:11;97016.84;;;5.49;81.96
26865;BME280;40618;51.166;10.322;2022-11-15T06:38:42;97018.63;;;5.46;82.03
26865;BME280;40618;51.166;10.322;2022-11-15T06:41:10;97028.06;;;5.43;82.00
26865;BME280;40618;51.166;10.322;2022-11-15T06:43:37;97024.69;;;5.41;82.15
26865;BME280;40618;51.166;10.322;2022-11-15T06:46:04;97021.25;;;5.41;82.07
26865;BME280;40618;51.166;10.322;2022-11-15T06:48:31;97016.97;;;5.41;82.50
26865;BME280;40618;51.166;10.322;2022-11-15T06:50:59;97023.81;;;5.41;81.97
26865;BME280;40618;51.166;10.322;2022-11-15T06:53:26;97015.28;;;5.40;82.17
26865;BME280;40618;51.166;10.322;2022-11-15T06:55:53;97018.72;;;5.39;82.08
26865;BME280;40618;51.166;10.322;2022-11-15T06:58:20;97021.31;;;5.38;82.07
26865;BME280;40618;51.166;10.322;2022-11-15T07:00:46;97029.13;;;5.32;81.95
26865;BME280;40618;51.166;10.322;2022-11-15T07:03:11;97026.66;;;5.25;82.04
26865;BME280;40618;51.166;10.322;2022-11-15T07:05:37;97028.44;;;5.20;82.07
26865;BME280;40618;51.166;10.322;2022-11-15T07:08:03;97028.47;;;5.19;82.27
26865;BME280;40618;51.166;10.322;2022-11-15T07:10:29;97031.09;;;5.16;81.96
26865;BME280;40618;51.166;10.322;2022-11-15T07:12:55;97034.44;;;5.19;81.96
26865;BME280;40618;51.166;10.322;2022-11-15T07:15:23;97029.28;;;5.21;82.16
26865;BME280;40618;51.166;10.322;2022-11-15T07:17:50;97028.38;;;5.25;82.13
26865;BME280;40618;51.166;10.322;2022-11-15T07:20:17;97024.00;;;5.30;82.46
26865;BME280;40618;51.166;10.322;2022-11-15T07:22:43;97023.97;;;5.33;82.28
26865;BME280;40618;51.166;10.322;2022-11-15T07:25:10;97020.47;;;5.37;82.37
26865;BME280;40618;51.166;10.322;2022-11-15T07:27:36;97024.69;;;5.41;82.16
26865;BME280;40618;51.166;10.322;2022-11-15T07:30:02;97027.22;;;5.43;82.24
26865;BME280;40618;51.166;10.322;2022-11-15T07:32:28;97022.03;;;5.46;82.43
26865;BME280;40618;51.166;10.322;2022-11-15T07:34:53;97020.25;;;5.51;82.46
26865;BME280;40618;51.166;10.322;2022-11-15T07:37:19;97019.28;;;5.57;82.51
26865;BME280;40618;51.166;10.322;2022-11-15T07:39:44;97029.47;;;5.63;82.86
26865;BME280;40618;51.166;10.322;2022-11-15T07:42:10;97021.69;;;5.66;82.40
26865;BME280;40618;51.166;10.322;2022-11-15T07:44:54;97024.22;;;5.69;82.40
26865;BME280;40618;51.166;10.322;2022-11-15T07:47:20;97017.31;;;5.73;82.88
26865;BME280;40618;51.166;10.322;2022-11-15T07:49:46;97014.69;;;5.76;82.43
26865;BME280;40618;51.166;10.322;2022-11-15T07:52:13;97017.19;;;5.79;82.39
26865;BME280;40618;51.166;10.322;2022-11-15T07:54:39;97025.69;;;5.83;82.89
26865;BME280;40618;51.166;10.322;2022-11-15T07:57:05;97029.03;;;5.88;82.54
26865;BME280;40618;51.166;10.322;2022-11-15T07:59:32;97028.09;;;5.92;82.73
26865;BME280;40618;51.166;10.322;2022-11-15T08:01:59;97028.06;;;5.93;82.63
26865;BME280;40618;51.166;10.322;2022-11-15T08:04:25;97032.28;;;5.99;82.81
26865;BME280;40618;51.166;10.322;2022-11-15T08:06:50;97024.50;;;6.02;82.62
26865;BME280;40618;51.166;10.322;2022-11-15T08:09:16;97021.88;;;6.05;82.90
26865;BME280;40618;51.166;10.322;2022-11-15T08:11:42;97011.53;;;6.08;82.76
26865;BME280;40618;51.166;10.322;2022-11-15T08:14:07;97010.66;;;6.11;82.88
26865;BME280;40618;51.166;10.322;2022-11-15T08:16:33;97014.84;;;6.14;82.33
26865;BME280;40618;51.166;10.322;2022-11-15T08:18:58;97010.53;;;6.16;83.08
26865;BME280;40618;51.166;10.322;2022-11-15T08:21:24;97011.31;;;6.21;82.87
26865;BME280;40618;51.166;10.322;2022-11-15T08:23:49;97012.06;;;6.24;83.14
26865;BME280;40618;51.166;10.322;2022-11-15T08:26:15;97002.59;;;6.28;83.04
26865;BME280;40618;51.166;10.322;2022-11-15T08:28:41;96995.63;;;6.33;83.31
26865;BME280;40618;51.166;10.322;2022-11-15T08:31:14;96995.47;;;6.39;83.28
26865;BME280;40618;51.166;10.322;2022-11-15T08:33:41;97000.56;;;6.44;82.69
26865;BME280;40618;51.166;10.322;2022-11-15T08:36:13;96989.31;;;6.48;82.95
26865;BME280;40618;51.166;10.322;2022-11-15T08:38:40;97002.16;;;6.50;83.07
26865;BME280;40618;51.166;10.322;2022-11-15T08:41:06;96996.13;;;6.49;82.59
26865;BME280;40618;51.166;10.322;2022-11-15T08:43:32;96991.00;;;6.49;82.85
26865;BME280;40618;51.166;10.322;2022-11-15T08:45:58;97003.81;;;6.52;82.95
26865;BME280;40618;51.166;10.322;2022-11-15T08:48:24;97000.34;;;6.53;83.29
26865;BME280;40618;51.166;10.322;2022-11-15T08:50:56;96992.63;;;6.53;82.70
26865;BME280;40618;51.166;10.322;2022-11-15T08:53:22;96987.53;;;6.50;83.09
26865;BME280;40618;51.166;10.322;2022-11-15T08:55:48;96985.84;;;6.51;82.77
26865;BME280;40618;51.166;10.322;2022-11-15T08:58:13;96972.03;;;6.53;83.21
26865;BME280;40618;51.166;10.322;2022-11-15T09:00:39;96969.50;;;6.52;82.55
26865;BME280;40618;51.166;10.322;2022-11-15T09:03:06;96967.75;;;6.54;82.89
26865;BME280;40618;51.166;10.322;2022-11-15T09:05:32;96966.91;;;6.53;83.06
26865;BME280;40618;51.166;10.322;2022-11-15T09:08:01;96980.66;;;6.52;82.88
26865;BME280;40618;51.166;10.322;2022-11-15T09:10:26;96980.69;;;6.51;83.19
26865;BME280;40618;51.166;10.322;2022-11-15T09:12:52;96971.28;;;6.50;83.16
26865;BME280;40618;51.166;10.322;2022-11-15T09:15:17;96977.38;;;6.46;83.04
26865;BME280;40618;51.166;10.322;2022-11-15T09:17:44;96969.69;;;6.44;82.43
26865;BME280;40618;51.166;10.322;2022-11-15T09:20:11;96961.16;;;6.42;82.67
26865;BME280;40618;51.166;10.322;2022-11-15T09:22:36;96971.34;;;6.45;82.92
26865;BME280;40618;51.166;10.322;2022-11-15T09:25:04;96962.81;;;6.44;82.98
26865;BME280;40618;51.166;10.322;2022-11-15T09:27:30;96956.81;;;6.44;82.80
26865;BME280;40618;51.166;10.322;2022-11-15T09:29:56;96958.53;;;6.43;82.79
26865;BME280;40618;51.166;10.322;2022-11-15T09:32:22;96956.81;;;6.44;83.14
26865;BME280;40618;51.166;10.322;2022-11-15T09:34:49;96955.97;;;6.43;82.85
26865;BME280;40618;51.166;10.322;2022-11-15T09:37:16;96952.53;;;6.44;82.90
26865;BME280;40618;51.166;10.322;2022-11-15T09:39:42;96952.53;;;6.44;83.13
26865;BME280;40618;51.166;10.322;2022-11-15T09:42:25;96955.03;;;6.48;82.99
26865;BME280;40618;51.166;10.322;2022-11-15T09:50:54;96950.59;;;6.54;83.03
26865;BME280;40618;51.166;10.322;2022-11-15T09:53:39;96948.00;;;6.54;83.45
26865;BME280;40618;51.166;10.322;2022-11-15T09:56:17;96954.03;;;6.55;82.92
26865;BME280;40618;51.166;10.322;2022-11-15T09:59:21;96946.28;;;6.56;82.88
26865;BME280;40618;51.166;10.322;2022-11-15T10:04:41;96937.53;;;6.64;83.28
26865;BME280;40618;51.166;10.322;2022-11-15T10:10:12;96927.03;;;6.73;82.98
26865;BME280;40618;51.166;10.322;2022-11-15T10:12:49;96921.75;;;6.77;83.03
26865;BME280;40618;51.166;10.322;2022-11-15T10:15:17;96929.19;;;6.90;82.83
26865;BME280;40618;51.166;10.322;2022-11-15T10:18:13;96926.41;;;6.99;83.70
26865;BME280;40618;51.166;10.322;2022-11-15T10:21:10;96920.22;;;7.06;82.91
26865;BME280;40618;51.166;10.322;2022-11-15T10:23:42;96919.00;;;7.21;83.50
26865;BME280;40618;51.166;10.322;2022-11-15T10:26:11;96911.69;;;7.39;83.36
26865;BME280;40618;51.166;10.322;2022-11-15T10:28:40;96903.69;;;7.50;83.42
26865;BME280;40618;51.166;10.322;2022-11-15T10:31:22;96903.53;;;7.54;82.90
26865;BME280;40618;51.166;10.322;2022-11-15T10:34:12;96897.22;;;7.66;83.30
26865;BME280;40618;51.166;10.322;2022-11-15T10:36:56;96895.38;;;7.71;83.32
26865;BME280;40618;51.166;10.322;2022-11-15T10:39:24;96894.31;;;7.78;83.13
26865;BME280;40618;51.166;10.322;2022-11-15T10:41:50;96895.75;;;7.87;83.06
26865;BME280;40618;51.166;10.322;2022-11-15T10:46:44;96894.31;;;8.08;82.90
26865;BME280;40618;51.166;10.322;2022-11-15T10:49:17;96882.97;;;8.14;82.63
26865;BME280;40618;51.166;10.322;2022-11-15T10:51:47;96881.06;;;8.21;83.38
26865;BME280;40618;51.166;10.322;2022-11-15T10:54:21;96875.59;;;8.32;82.88
26865;BME280;40618;51.166;10.322;2022-11-15T10:56:52;96876.09;;;8.43;82.40
26865;BME280;40618;51.166;10.322;2022-11-15T10:59:29;96875.00;;;8.52;82.58
26865;BME280;40618;51.166;10.322;2022-11-15T11:01:56;96867.00;;;8.59;82.74
26865;BME280;40618;51.166;10.322;2022-11-15T11:04:22;96871.09;;;8.67;82.52
26865;BME280;40618;51.166;10.322;2022-11-15T11:06:53;96867.47;;;8.72;82.56
26865;BME280;40618;51.166;10.322;2022-11-15T11:09:35;96862.06;;;8.80;83.19
26865;BME280;40618;51.166;10.322;2022-11-15T11:12:10;96864.34;;;8.89;82.28
26865;BME280;40618;51.166;10.322;2022-11-15T11:14:38;96860.72;;;8.95;82.49
26865;BME280;40618;51.166;10.322;2022-11-15T11:29:06;96842.94;;;9.36;81.88
26865;BME280;40618;51.166;10.322;2022-11-15T11:37:52;96829.28;;;9.58;81.81
26865;BME280;40618;51.166;10.322;2022-11-15T11:46:54;96830.41;;;9.74;81.30
26865;BME280;40618;51.166;10.322;2022-11-15T11:52:26;96828.84;;;9.94;81.38
26865;BME280;40618;51.166;10.322;2022-11-15T12:00:33;96815.19;;;10.12;80.71
26865;BME280;40618;51.166;10.322;2022-11-15T12:03:14;96815.03;;;10.17;80.51
26865;BME280;40618;51.166;10.322;2022-11-15T12:05:48;96821.69;;;10.23;80.85
26865;BME280;40618;51.166;10.322;2022-11-15T12:11:13;96817.06;;;10.31;80.21
26865;BME280;40618;51.166;10.322;2022-11-15T12:13:44;96821.34;;;10.32;80.20
26865;BME280;40618;51.166;10.322;2022-11-15T12:16:29;96820.38;;;10.36;80.24
26865;BME280;40618;51.166;10.322;2022-11-15T12:19:01;96812.41;;;10.41;80.24
26865;BME280;40618;51.166;10.322;2022-11-15T12:21:44;96816.41;;;10.48;80.26
26865;BME280;40618;51.166;10.322;2022-11-15T12:24:17;96808.59;;;10.49;80.28
26865;BME280;40618;51.166;10.322;2022-11-15T12:26:52;96807.81;;;10.47;80.26
26865;BME280;40618;51.166;10.322;2022-11-15T12:29:42;96800.06;;;10.47;80.21
26865;BME280;40618;51.166;10.322;2022-11-15T12:32:24;96804.34;;;10.48;80.03
26865;BME280;40618;51.166;10.322;2022-11-15T12:34:59;96797.59;;;10.44;79.80
26865;BME280;40618;51.166;10.322;2022-11-15T12:40:27;96801.09;;;10.43;80.25
26865;BME280;40618;51.166;10.322;2022-11-15T12:58:56;96784.75;;;10.19;79.52
26865;BME280;40618;51.166;10.322;2022-11-15T13:04:21;96778.06;;;10.13;80.04
26865;BME280;40618;51.166;10.322;2022-11-15T13:06:58;96768.69;;;10.11;79.36
26865;BME280;40618;51.166;10.322;2022-11-15T13:11:55;96765.13;;;10.13;79.53
26865;BME280;40618;51.166;10.322;2022-11-15T13:14:42;96759.84;;;10.16;79.58
26865;BME280;40618;51.166;10.322;2022-11-15T13:19:57;96763.88;;;10.24;79.53
26865;BME280;40618;51.166;10.322;2022-11-15T13:25:51;96752.38;;;10.31;79.99
26865;BME280;40618;51.166;10.322;2022-11-15T13:31:27;96738.19;;;10.41;79.70
26865;BME280;40618;51.166;10.322;2022-11-15T13:34:28;96744.00;;;10.46;79.46
26865;BME280;40618;51.166;10.322;2022-11-15T13:36:58;96736.03;;;10.51;79.77
26865;BME280;40618;51.166;10.322;2022-11-15T13:39:30;96735.03;;;10.55;79.56
26865;BME280;40618;51.166;10.322;2022-11-15T13:41:58;96734.91;;;10.58;79.57
26865;BME280;40618;51.166;10.322;2022-11-15T13:44:27;96731.44;;;10.59;79.11
26865;BME280;40618;51.166;10.322;2022-11-15T13:47:14;96721.97;;;10.58;79.43
26865;BME280;40618;51.166;10.322;2022-11-15T13:49:41;96722.03;;;10.57;78.83
26865;BME280;40618;51.166;10.322;2022-11-15T13:52:10;96716.13;;;10.53;79.11
26865;BME280;40618;51.166;10.322;2022-11-15T13:54:42;96720.53;;;10.51;78.99
26865;BME280;40618;51.166;10.322;2022-11-15T14:03:27;96712.22;;;10.43;78.92
26865;BME280;40618;51.166;10.322;2022-11-15T14:06:11;96706.50;;;10.36;79.26
26865;BME280;40618;51.166;10.322;2022-11-15T14:11:52;96698.09;;;10.29;79.54
26865;BME280;40618;51.166;10.322;2022-11-15T14:14:24;96695.63;;;10.26;78.79
26865;BME280;40618;51.166;10.322;2022-11-15T14:16:53;96693.22;;;10.22;78.78
26865;BME280;40618;51.166;10.322;2022-11-15T14:24:36;96703.81;;;10.15;79.34
26865;BME280;40618;51.166;10.322;2022-11-15T14:27:26;96709.84;;;10.16;78.85
26865;BME280;40618;51.166;10.322;2022-11-15T14:29:53;96698.72;;;10.14;79.34
26865;BME280;40618;51.166;10.322;2022-11-15T14:32:38;96699.66;;;10.11;79.26
26865;BME280;40618;51.166;10.322;2022-11-15T14:35:16;96701.50;;;10.09;79.53
26865;BME280;40618;51.166;10.322;2022-11-15T14:37:45;96699.94;;;10.05;79.69
26865;BME280;40618;51.166;10.322;2022-11-15T14:40:17;96699.94;;;10.05;79.37
26865;BME280;40618;51.166;10.322;2022-11-15T14:42:45;96696.44;;;10.06;79.51
26865;BME280;40618;51.166;10.322;2022-11-15T14:45:18;96699.09;;;10.05;79.39
26865;BME280;40618;51.166;10.322;2022-11-15T14:47:45;96693.97;;;10.03;79.05
26865;BME280;40618;51.166;10.322;2022-11-15T14:50:17;96681.97;;;10.02;79.50
26865;BME280;40618;51.166;10.322;2022-11-15T14:52:45;96681.16;;;10.00;79.27
26865;BME280;40618;51.166;10.322;2022-11-15T14:55:33;96682.06;;;9.99;79.52
26865;BME280;40618;51.166;10.322;2022-11-15T14:58:05;96687.84;;;10.06;79.71
26865;BME280;40618;51.166;10.322;2022-11-15T15:00:36;96673.81;;;10.11;79.85
26865;BME280;40618;51.166;10.322;2022-11-15T15:03:04;96678.97;;;10.11;79.78
26865;BME280;40618;51.166;10.322;2022-11-15T15:05:36;96672.97;;;10.11;79.52
26865;BME280;40618;51.166;10.322;2022-11-15T15:08:04;96671.34;;;10.08;79.55
26865;BME280;40618;51.166;10.322;2022-11-15T15:10:33;96668.75;;;10.08;79.82
26865;BME280;40618;51.166;10.322;2022-11-15T15:13:04;96674.06;;;10.05;79.71
26865;BME280;40618;51.166;10.322;2022-11-15T15:15:33;96671.63;;;10.02;79.91
26865;BME280;40618;51.166;10.322;2022-11-15T15:18:01;96671.78;;;9.97;79.48
26865;BME280;40618;51.166;10.322;2022-11-15T15:20:27;96662.41;;;9.95;79.32
26865;BME280;40618;51.166;10.322;2022-11-15T15:22:54;96661.69;;;9.91;79.53